This is the latest recevied weather packets stored in our database for station/object K2BIG. If no packets are shown the sender has not sent any weather packets the latest 10 day(s).
| Time | Temp. | Humidity | Pressure | Rain* | Wind** | Luminosity | Snow |
|---|---|---|---|---|---|---|---|
| 1777920917 | 21.67° C | 39% | 1008.7 hPa | 0 mm | - | - | - |
| 1777920617 | 21.67° C | 37% | 1008.8 hPa | 0 mm | - | - | - |
| 1777920317 | 22.22° C | 37% | 1008.8 hPa | 0 mm | - | - | - |
| 1777920016 | 22.78° C | 36% | 1008.9 hPa | 0 mm | - | - | - |
| 1777919717 | 23.33° C | 35% | 1009 hPa | 0 mm | - | - | - |
| 1777919417 | 23.33° C | 38% | 1009 hPa | 0 mm | - | - | - |
| 1777919117 | 22.78° C | 37% | 1009 hPa | 0 mm | - | - | - |
| 1777918817 | 22.78° C | 37% | 1009.1 hPa | 0 mm | - | - | - |
| 1777918517 | 22.22° C | 38% | 1009.2 hPa | 0 mm | - | - | - |
| 1777918217 | 22.22° C | 37% | 1009.3 hPa | 0 mm | - | - | - |
| 1777917917 | 22.22° C | 38% | 1009.3 hPa | 0 mm | - | - | - |
| 1777917617 | 22.22° C | 37% | 1009.5 hPa | 0 mm | - | - | - |
| 1777917317 | 21.67° C | 42% | 1009.5 hPa | 0 mm | - | - | - |
| 1777917017 | 21.67° C | 38% | 1009.5 hPa | 0 mm | - | - | - |
| 1777916717 | 21.67° C | 38% | 1009.5 hPa | 0 mm | - | - | - |
| 1777916417 | 21.11° C | 41% | 1009.5 hPa | 0 mm | - | - | - |
| 1777916117 | 21.11° C | 39% | 1009.6 hPa | 0 mm | - | - | - |
| 1777915816 | 21.11° C | 39% | 1009.7 hPa | 0 mm | - | - | - |
| 1777915516 | 20.56° C | 40% | 1009.8 hPa | 0 mm | - | - | - |
| 1777915217 | 21.11° C | 37% | 1010 hPa | 0 mm | - | - | - |
| 1777914917 | 21.11° C | 40% | 1009.9 hPa | 0 mm | - | - | - |
| 1777914616 | 21.11° C | 40% | 1010.1 hPa | 0 mm | - | - | - |
| 1777914317 | 20.56° C | 39% | 1010.3 hPa | 0 mm | - | - | - |
| 1777914017 | 20.56° C | 41% | 1010.1 hPa | 0 mm | - | - | - |
| 1777913717 | 20° C | 39% | 1010.2 hPa | 0 mm | - | - | - |
* Rain latest hour (hover to see other rain measurements)
** Current wind speed in m/s (hover to see current wind gust speed)